Askov, MN (55704)

2:58 AM CDT on July 25, 2014 (GMT -0500)
RiverLand (KMNFINLA2) Elev 1115 ft | 46.29 °N, 92.96 °W | Change Station

Current weather conditions updated 8 minutes ago

Mostly Cloudy
Mostly Cloudy
61.5 °F
Feels Like 61.5 °F
N
0.0
Wind Variable Wind from East
Gusts 0.0 mph

Today is forecast to be nearly the same temperature as yesterday. Scattered thunderstorms possible.

Today
High -- | Low -- °F
--% Chance of Precip.
Yesterday
High -- | Low -- °F
Precip. -- in
5:44 AM 8:50 PM
Waning Crescent, 2% visible
Pressure 29.86 in
Visibility 10.0 miles
Clouds Mostly Cloudy 10000 ft
Mostly Cloudy 12000 ft
Dew Point 54 °F
Humidity 75%
Rainfall 0.00 in
Snow Depth Not available.
UV 0 out of 12
Pollen 5.20 out of 12
Air Quality Not available.
Flu Activity Not available.
METAR KMZH 250755Z AUTO 00000KT 10SM BKN100 BKN120 16/15 A2986 RMK AO2

More Conditions Fewer Conditions

Pressure 29.86 in
Visibility 10.0 miles
Clouds Mostly Cloudy 10000 ft
Mostly Cloudy 12000 ft
Dew Point 54 °F
Humidity 75%
Rainfall 0.00 in
Snow Depth Not available.
UV 0 out of 12
Pollen 5.20 out of 12
Air Quality Not available.
Flu Activity Not available.
METAR KMZH 250755Z AUTO 00000KT 10SM BKN100 BKN120 16/15 A2986 RMK AO2

More Conditions Fewer Conditions

10-Day Weather Forecast

Almanac

Astronomy

Jul. 25, 2014 Rise Set
Actual Time 5:44 AM CDT 8:50 PM CDT
Civil Twilight 5:08 AM CDT 9:25 PM CDT
Nautical Twilight 4:22 AM CDT 10:11 PM CDT
Astronomical Twilight 3:25 AM CDT 11:07 PM CDT
Moon 4:46 AM CDT 7:44 PM CDT
Length of Visible Light 16h 16m
Length of Day
15h 05m
Tomorrow will be 2m 16s shorter.
Waning Crescent, 2% of the Moon is Illuminated
Today
Waning Crescent
Jul 26
New
Aug 3
First Quarter
Aug 10
Full
Aug 17
Last Quarter

Today's Extremes

State Highs State Lows

Community

WunderPhotos

Upload Photos

1,737,273 photos uploaded!

Nearby

Snow Depth

Station Depth Elevation
No new snow has been reported.

Earthquake Activity

City Distance Mag. Time & Date
No recent earthquake activity has been reported nearby.
Minimum magnitude displayed is 2.5.

Coastal Water Temperatures

Place Temperature
No Stations Reporting

Nearby Weather Stations

Station Location Temp. Dew Point Humidity Wind Precip. Elev Updated Type
RiverLand, Finlayson, MN 61.5 °F 54 °F 75% East  at  0.0 mph 0.00 in / hr 1115 ft 2:50 AM CDT Rapid Fire
Coffee Lake, Moose Lake Twp., MN 64.9 °F 63 °F 92% NW  at  0.0 mph 0.00 in / hr 1060 ft 2:57 AM CDT Rapid Fire
None, Brook Park, MN 64.9 °F 63 °F 94% ESE  at  0.0 mph 0.00 in / hr 1030 ft 2:58 AM CDT Rapid Fire

Show More Stations Show Fewer Stations